createdAt,value
2019-02-27T00:00:29.386Z,16.27
2019-02-27T00:02:57.987Z,17.10
2019-02-27T00:05:26.643Z,17.30
2019-02-27T00:07:55.110Z,17.13
2019-02-27T00:10:23.735Z,19.20
2019-02-27T00:12:52.572Z,17.93
2019-02-27T00:15:21.221Z,18.30
2019-02-27T00:17:51.551Z,18.47
2019-02-27T00:20:19.968Z,18.90
2019-02-27T00:22:50.753Z,18.90
2019-02-27T00:25:18.962Z,18.37
2019-02-27T00:27:49.260Z,18.27
2019-02-27T00:30:18.176Z,20.30
2019-02-27T00:32:50.948Z,18.50
2019-02-27T00:35:17.211Z,19.50
2019-02-27T00:37:45.980Z,20.27
2019-02-27T00:40:14.582Z,20.13
2019-02-27T00:42:43.071Z,19.07
2019-02-27T00:45:12.016Z,19.67
2019-02-27T00:47:40.576Z,19.87
2019-02-27T00:50:10.328Z,19.43
2019-02-27T00:52:38.819Z,16.93
2019-02-27T00:55:08.784Z,17.10
2019-02-27T00:57:37.315Z,17.60
2019-02-27T01:00:18.905Z,15.50
2019-02-27T01:02:47.888Z,15.60
2019-02-27T01:05:16.425Z,15.70
2019-02-27T01:07:45.265Z,15.90
2019-02-27T01:10:14.164Z,15.53
2019-02-27T01:12:42.941Z,14.17
2019-02-27T01:15:13.746Z,14.90
2019-02-27T01:17:43.187Z,14.33
2019-02-27T01:20:15.623Z,14.60
2019-02-27T01:22:44.185Z,16.20
2019-02-27T01:25:13.560Z,14.30
2019-02-27T01:27:42.117Z,14.73
2019-02-27T01:30:17.923Z,15.20
2019-02-27T01:32:46.547Z,14.00
2019-02-27T01:35:17.885Z,14.57
2019-02-27T01:37:45.373Z,14.00
2019-02-27T01:40:17.950Z,14.27
2019-02-27T01:42:45.329Z,13.90
2019-02-27T01:45:20.731Z,13.83
2019-02-27T01:47:45.831Z,14.17
2019-02-27T01:50:26.383Z,15.27
2019-02-27T01:52:54.843Z,13.83
2019-02-27T01:55:23.332Z,15.00
2019-02-27T01:57:51.863Z,13.20
2019-02-27T02:00:23.022Z,14.30
2019-02-27T02:02:51.076Z,14.00
2019-02-27T02:05:20.168Z,13.93
2019-02-27T02:07:49.096Z,13.20
2019-02-27T02:10:17.923Z,13.67
2019-02-27T02:12:49.821Z,14.47
2019-02-27T02:15:30.289Z,14.87
2019-02-27T02:18:21.307Z,14.07
2019-02-27T02:21:00.955Z,14.10
2019-02-27T02:23:55.216Z,13.03
2019-02-27T02:27:00.375Z,13.20
2019-02-27T02:29:38.060Z,13.80
2019-02-27T02:32:24.881Z,14.43
2019-02-27T02:35:14.863Z,13.73
2019-02-27T02:37:49.563Z,13.97
2019-02-27T02:40:30.839Z,12.83
2019-02-27T02:43:40.153Z,12.80
2019-02-27T02:46:28.768Z,13.07
2019-02-27T02:49:08.036Z,13.93
2019-02-27T02:51:54.481Z,13.23
2019-02-27T02:54:41.024Z,12.63
2019-02-27T02:57:27.729Z,12.97
2019-02-27T03:00:04.824Z,11.83
2019-02-27T03:02:39.489Z,13.33
2019-02-27T03:05:31.736Z,12.83
2019-02-27T03:08:19.823Z,12.20
2019-02-27T03:10:54.061Z,12.40
2019-02-27T03:13:41.529Z,12.00
2019-02-27T03:16:45.453Z,12.77
2019-02-27T03:19:22.575Z,11.93
2019-02-27T03:22:06.009Z,12.23
2019-02-27T03:24:40.301Z,12.83
2019-02-27T03:27:20.632Z,13.30
2019-02-27T03:30:04.069Z,12.57
2019-02-27T03:32:47.710Z,13.13
2019-02-27T03:35:47.973Z,12.90
2019-02-27T03:38:39.038Z,14.33
2019-02-27T03:41:13.422Z,12.80
2019-02-27T03:44:06.165Z,13.27
2019-02-27T03:46:49.875Z,11.67
2019-02-27T03:49:27.252Z,12.63
2019-02-27T03:52:04.576Z,13.10
2019-02-27T03:54:42.184Z,12.83
2019-02-27T03:57:28.673Z,13.00
2019-02-27T04:00:19.921Z,11.87
2019-02-27T04:02:51.531Z,11.93
2019-02-27T04:05:42.109Z,12.53
2019-02-27T04:08:44.912Z,12.10
2019-02-27T04:11:13.696Z,62.87
2019-02-27T04:13:42.152Z,14.37
2019-02-27T04:16:10.637Z,11.47
2019-02-27T04:18:38.093Z,11.03
2019-02-27T04:21:06.688Z,11.70
2019-02-27T04:23:35.249Z,11.37
2019-02-27T04:26:05.783Z,10.17
2019-02-27T04:28:34.936Z,10.53
2019-02-27T04:31:03.387Z,10.33
2019-02-27T04:33:31.944Z,10.20
2019-02-27T04:36:00.474Z,10.27
2019-02-27T04:38:29.003Z,9.87
2019-02-27T04:40:57.487Z,11.00
2019-02-27T04:43:26.018Z,11.60
2019-02-27T04:45:54.571Z,11.77
2019-02-27T04:48:23.376Z,11.73
2019-02-27T04:50:51.940Z,10.50
2019-02-27T04:53:20.404Z,10.90
2019-02-27T04:55:50.540Z,10.97
2019-02-27T04:58:19.447Z,11.20
2019-02-27T05:00:48.216Z,11.70
2019-02-27T05:03:16.767Z,12.10
2019-02-27T05:05:45.225Z,11.17
2019-02-27T05:08:13.708Z,12.13
2019-02-27T05:10:42.175Z,11.03
2019-02-27T05:13:10.660Z,12.37
2019-02-27T05:15:39.695Z,11.83
2019-02-27T05:18:08.367Z,10.80
2019-02-27T05:20:37.195Z,11.23
2019-02-27T05:23:05.747Z,10.87
2019-02-27T05:25:34.282Z,11.13
2019-02-27T05:28:02.815Z,11.23
2019-02-27T05:30:31.295Z,11.07
2019-02-27T05:33:02.131Z,10.73
2019-02-27T05:35:30.293Z,10.80
2019-02-27T05:37:58.824Z,9.90
2019-02-27T05:40:27.704Z,10.30
2019-02-27T05:42:56.164Z,10.90
2019-02-27T05:45:24.719Z,10.20
2019-02-27T05:47:53.174Z,10.30
2019-02-27T05:50:21.655Z,10.17
2019-02-27T05:52:50.115Z,10.17
2019-02-27T05:55:18.905Z,10.30
2019-02-27T05:57:47.424Z,9.57
2019-02-27T06:00:18.875Z,9.17
2019-02-27T06:02:47.416Z,9.87
2019-02-27T06:05:15.951Z,9.63
2019-02-27T06:07:44.504Z,9.80
2019-02-27T06:10:19.754Z,10.30
2019-02-27T06:12:45.277Z,10.40
2019-02-27T06:15:18.204Z,10.40
2019-02-27T06:17:49.077Z,12.53
2019-02-27T06:20:16.875Z,12.00
2019-02-27T06:22:45.361Z,12.60
2019-02-27T06:25:21.600Z,12.30
2019-02-27T06:27:48.265Z,12.03
2019-02-27T06:30:21.011Z,11.37
2019-02-27T06:32:49.499Z,11.30
2019-02-27T06:35:18.032Z,10.90
2019-02-27T06:37:50.384Z,11.07
2019-02-27T06:40:18.421Z,10.70
2019-02-27T06:42:48.123Z,10.50
2019-02-27T06:45:17.663Z,9.37
2019-02-27T06:47:46.185Z,10.70
2019-02-27T06:50:16.084Z,10.43
2019-02-27T06:52:45.019Z,10.47
2019-02-27T06:55:14.613Z,9.70
2019-02-27T06:57:43.416Z,9.40
2019-02-27T07:00:17.807Z,10.13
2019-02-27T07:02:46.546Z,9.00
2019-02-27T07:05:15.330Z,9.50
2019-02-27T07:07:43.869Z,9.43
2019-02-27T07:10:19.462Z,9.43
2019-02-27T07:12:47.200Z,10.27
2019-02-27T07:15:21.540Z,9.23
2019-02-27T07:17:50.136Z,10.10
2019-02-27T07:20:23.861Z,10.73
2019-02-27T07:22:48.893Z,11.00
2019-02-27T07:25:19.139Z,10.70
2019-02-27T07:27:48.008Z,9.67
2019-02-27T07:30:18.575Z,11.23
2019-02-27T07:32:47.124Z,11.10
2019-02-27T07:35:16.224Z,12.87
2019-02-27T07:37:47.444Z,10.73
2019-02-27T07:40:16.482Z,10.23
2019-02-27T07:42:45.859Z,10.07
2019-02-27T07:45:16.656Z,10.87
2019-02-27T07:47:45.124Z,10.43
2019-02-27T07:50:17.701Z,11.10
2019-02-27T07:52:46.328Z,10.47
2019-02-27T07:55:22.066Z,10.73
2019-02-27T07:57:46.571Z,10.97
2019-02-27T08:00:17.735Z,11.40
2019-02-27T08:02:46.531Z,12.67
2019-02-27T08:05:15.631Z,10.60
2019-02-27T08:07:48.756Z,10.97
2019-02-27T08:10:17.435Z,12.10
2019-02-27T08:12:45.974Z,12.20
2019-02-27T08:15:16.836Z,11.00
2019-02-27T08:17:45.405Z,11.07
2019-02-27T08:20:15.064Z,11.47
2019-02-27T08:22:43.884Z,12.60
2019-02-27T08:25:17.806Z,10.60
2019-02-27T08:27:46.684Z,10.90
2019-02-27T08:30:22.900Z,10.93
2019-02-27T08:32:51.503Z,11.40
2019-02-27T08:35:20.064Z,11.10
2019-02-27T08:37:48.875Z,11.60
2019-02-27T08:40:17.473Z,11.77
2019-02-27T08:42:46.032Z,12.00
2019-02-27T08:45:19.943Z,11.60
2019-02-27T08:47:46.676Z,11.40
2019-02-27T08:50:20.276Z,11.53
2019-02-27T08:52:51.629Z,11.97
2019-02-27T08:55:22.384Z,12.10
2019-02-27T08:57:55.443Z,11.93
2019-02-27T09:00:25.344Z,12.03
2019-02-27T09:02:55.619Z,10.93
2019-02-27T09:05:24.311Z,11.20
2019-02-27T09:07:53.012Z,11.63
2019-02-27T09:10:23.165Z,11.73
2019-02-27T09:12:53.216Z,11.10
2019-02-27T09:15:21.999Z,12.27
2019-02-27T09:17:50.627Z,11.83
2019-02-27T09:20:20.670Z,12.77
2019-02-27T09:22:49.391Z,11.53
2019-02-27T09:25:18.220Z,11.13
2019-02-27T09:27:46.751Z,11.97
2019-02-27T09:30:22.792Z,12.10
2019-02-27T09:32:51.325Z,10.30
2019-02-27T09:35:20.025Z,11.40
2019-02-27T09:37:51.422Z,11.30
2019-02-27T09:40:26.348Z,11.00
2019-02-27T09:42:54.952Z,11.43
2019-02-27T09:45:35.091Z,10.70
2019-02-27T09:48:04.651Z,11.30
2019-02-27T09:50:41.520Z,10.20
2019-02-27T09:53:10.232Z,10.47
2019-02-27T09:55:39.100Z,10.60
2019-02-27T09:58:11.091Z,10.43
2019-02-27T10:00:51.879Z,9.80
2019-02-27T10:03:21.508Z,10.50
2019-02-27T10:05:50.387Z,11.10
2019-02-27T10:08:19.005Z,10.37
2019-02-27T10:10:47.535Z,10.67
2019-02-27T10:13:16.034Z,11.03
2019-02-27T10:15:44.871Z,10.87
2019-02-27T10:18:18.114Z,10.50
2019-02-27T10:20:43.622Z,10.17
2019-02-27T10:23:12.571Z,11.17
2019-02-27T10:25:43.485Z,10.90
2019-02-27T10:28:12.003Z,11.33
2019-02-27T10:30:40.535Z,11.57
2019-02-27T10:33:11.167Z,11.80
2019-02-27T10:35:39.522Z,11.70
2019-02-27T10:38:08.047Z,12.33
2019-02-27T10:40:36.536Z,11.80
2019-02-27T10:43:05.349Z,12.10
2019-02-27T10:45:34.047Z,12.37
2019-02-27T10:48:02.588Z,12.63
2019-02-27T10:50:31.210Z,12.20
2019-02-27T10:52:59.672Z,12.10
2019-02-27T10:55:28.464Z,12.37
2019-02-27T10:57:56.995Z,12.37
2019-02-27T11:00:29.164Z,12.93
2019-02-27T11:02:58.363Z,12.97
2019-02-27T11:05:29.011Z,13.05
2019-02-27T11:07:57.563Z,13.60
2019-02-27T11:10:26.367Z,13.57
2019-02-27T11:12:54.922Z,13.80
2019-02-27T11:15:23.556Z,13.90
2019-02-27T11:17:52.107Z,14.17
2019-02-27T11:20:21.988Z,13.97
2019-02-27T11:22:51.405Z,13.70
2019-02-27T11:25:27.871Z,14.83
2019-02-27T11:27:56.365Z,14.20
2019-02-27T11:30:27.975Z,14.77
2019-02-27T11:32:57.886Z,13.90
2019-02-27T11:35:26.562Z,12.80
2019-02-27T11:37:55.170Z,12.97
2019-02-27T11:40:25.296Z,13.33
2019-02-27T11:42:53.848Z,12.70
2019-02-27T11:45:24.644Z,12.10
2019-02-27T11:47:52.748Z,12.60
2019-02-27T11:50:21.302Z,12.00
2019-02-27T11:52:50.298Z,12.73
2019-02-27T11:55:21.100Z,11.37
2019-02-27T11:57:49.837Z,11.93
2019-02-27T12:00:30.567Z,11.30
2019-02-27T12:02:59.540Z,11.50
2019-02-27T12:05:33.704Z,11.20
2019-02-27T12:07:59.360Z,12.10
2019-02-27T12:10:31.789Z,11.63
2019-02-27T12:13:01.286Z,11.37
2019-02-27T12:15:30.598Z,11.80
2019-02-27T12:18:00.542Z,13.47
2019-02-27T12:20:30.094Z,13.37
2019-02-27T12:22:58.646Z,12.23
2019-02-27T12:25:29.966Z,13.80
2019-02-27T12:27:58.480Z,12.83
2019-02-27T12:30:28.829Z,13.10
2019-02-27T12:32:57.480Z,13.70
2019-02-27T12:35:28.268Z,12.40
2019-02-27T12:37:56.948Z,13.00
2019-02-27T12:40:25.659Z,13.63
2019-02-27T12:42:54.375Z,12.90
2019-02-27T12:45:30.165Z,12.47
2019-02-27T12:47:58.741Z,12.30
2019-02-27T12:50:30.975Z,12.40
2019-02-27T12:52:58.809Z,12.03
2019-02-27T12:55:27.445Z,12.00
2019-02-27T12:57:56.058Z,12.07
2019-02-27T13:00:30.419Z,12.73
2019-02-27T13:02:59.265Z,11.43
2019-02-27T13:05:28.711Z,10.97
2019-02-27T13:07:57.993Z,10.53
2019-02-27T13:10:27.405Z,10.30
2019-02-27T13:12:56.287Z,10.97
2019-02-27T13:15:26.959Z,12.37
2019-02-27T13:17:57.694Z,11.20
2019-02-27T13:20:29.888Z,11.27
2019-02-27T13:22:58.356Z,9.80
2019-02-27T13:25:27.058Z,10.57
2019-02-27T13:27:55.671Z,10.27
2019-02-27T13:30:25.850Z,8.63
2019-02-27T13:32:54.451Z,7.97
2019-02-27T13:35:24.020Z,7.30
2019-02-27T13:37:52.924Z,8.30
2019-02-27T13:40:35.382Z,7.50
2019-02-27T13:43:02.049Z,4.40
2019-02-27T13:45:32.216Z,3.63
2019-02-27T13:48:02.270Z,5.70
2019-02-27T13:50:30.965Z,6.17
2019-02-27T13:52:59.473Z,6.80
2019-02-27T13:55:27.997Z,6.20
2019-02-27T13:57:59.220Z,5.17
2019-02-27T14:00:34.005Z,5.50
2019-02-27T14:03:02.493Z,9.60
2019-02-27T14:05:34.980Z,6.33
2019-02-27T14:08:01.445Z,7.40
2019-02-27T14:10:31.873Z,7.97
2019-02-27T14:13:00.558Z,7.03
2019-02-27T14:15:31.443Z,7.10
2019-02-27T14:18:00.114Z,7.47
2019-02-27T14:20:29.222Z,6.80
2019-02-27T14:22:58.154Z,6.57
2019-02-27T14:25:33.287Z,7.93
2019-02-27T14:28:01.736Z,9.17
2019-02-27T14:30:35.655Z,6.77
2019-02-27T14:33:03.491Z,8.37
2019-02-27T14:35:36.265Z,6.80
2019-02-27T14:38:02.468Z,7.03
2019-02-27T14:40:31.087Z,6.53
2019-02-27T14:42:59.617Z,7.00
2019-02-27T14:45:28.091Z,5.33
2019-02-27T14:47:56.542Z,6.50
2019-02-27T14:50:25.361Z,6.30
2019-02-27T14:52:53.959Z,6.50
2019-02-27T14:55:23.383Z,6.60
2019-02-27T14:57:52.076Z,6.27
2019-02-27T15:00:26.247Z,6.67
2019-02-27T15:02:55.977Z,7.17
2019-02-27T15:05:25.084Z,6.50
2019-02-27T15:07:54.841Z,14.53
2019-02-27T15:10:24.121Z,12.20
2019-02-27T15:12:55.082Z,5.37
2019-02-27T15:15:30.876Z,5.40
2019-02-27T15:17:59.768Z,5.17
2019-02-27T15:20:29.471Z,5.60
2019-02-27T15:22:58.063Z,5.63
2019-02-27T15:25:27.808Z,5.67
2019-02-27T15:27:58.865Z,5.57
2019-02-27T15:30:33.983Z,6.73
2019-02-27T15:33:04.890Z,6.60
2019-02-27T15:35:33.124Z,5.93
2019-02-27T15:38:01.719Z,5.70
2019-02-27T15:40:33.263Z,5.50
2019-02-27T15:43:10.671Z,5.83
2019-02-27T15:45:32.164Z,6.60
2019-02-27T15:48:00.691Z,7.53
2019-02-27T15:50:34.518Z,7.50
2019-02-27T15:53:03.153Z,7.30
2019-02-27T15:55:34.180Z,6.90
2019-02-27T15:58:01.863Z,7.47
2019-02-27T16:00:30.567Z,7.37
2019-02-27T16:02:59.134Z,7.60
2019-02-27T16:05:31.465Z,7.50
2019-02-27T16:07:57.869Z,7.13
2019-02-27T16:10:27.530Z,6.93
2019-02-27T16:13:00.003Z,6.60
2019-02-27T16:15:26.994Z,6.90
2019-02-27T16:17:55.484Z,7.80
2019-02-27T16:20:25.393Z,7.40
2019-02-27T16:22:54.020Z,7.37
2019-02-27T16:25:26.879Z,6.40
2019-02-27T16:27:55.500Z,6.60
2019-02-27T16:30:32.869Z,9.97
2019-02-27T16:33:01.707Z,10.53
2019-02-27T16:35:30.367Z,10.10
2019-02-27T16:37:58.895Z,8.80
2019-02-27T16:40:28.927Z,9.70
2019-02-27T16:42:57.385Z,8.30
2019-02-27T16:45:34.758Z,9.33
2019-02-27T16:48:02.436Z,10.90
2019-02-27T16:50:30.921Z,11.90
2019-02-27T16:52:59.522Z,11.63
2019-02-27T16:55:28.754Z,11.17
2019-02-27T16:57:57.843Z,11.20
2019-02-27T17:00:31.580Z,10.60
2019-02-27T17:03:00.276Z,11.60
2019-02-27T17:05:28.965Z,11.90
2019-02-27T17:08:02.091Z,11.20
2019-02-27T17:10:36.530Z,12.00
2019-02-27T17:13:05.499Z,10.30
2019-02-27T17:15:35.806Z,11.53
2019-02-27T17:18:04.979Z,14.20
2019-02-27T17:20:33.576Z,10.87
2019-02-27T17:23:07.583Z,10.73
2019-02-27T17:25:32.383Z,10.43
2019-02-27T17:28:01.444Z,11.30
2019-02-27T17:30:36.218Z,10.77
2019-02-27T17:33:04.078Z,11.07
2019-02-27T17:35:33.287Z,10.57
2019-02-27T17:38:02.142Z,10.97
2019-02-27T17:40:30.716Z,10.90
2019-02-27T17:42:59.237Z,12.83
2019-02-27T17:45:28.351Z,12.20
2019-02-27T17:47:56.960Z,11.63
2019-02-27T17:50:31.275Z,12.43
2019-02-27T17:52:55.844Z,13.03
2019-02-27T17:55:24.470Z,12.90
2019-02-27T17:57:58.020Z,12.13
2019-02-27T18:00:32.684Z,12.30
2019-02-27T18:03:01.141Z,13.13
2019-02-27T18:05:29.787Z,12.90
2019-02-27T18:07:58.243Z,13.30
2019-02-27T18:10:26.719Z,13.07
2019-02-27T18:12:55.180Z,13.90
2019-02-27T18:15:24.803Z,13.80
2019-02-27T18:17:53.414Z,16.10
2019-02-27T18:20:25.625Z,14.67
2019-02-27T18:22:52.343Z,14.03
2019-02-27T18:25:20.944Z,14.27
2019-02-27T18:27:49.743Z,14.40
2019-02-27T18:30:23.515Z,13.33
2019-02-27T18:32:52.163Z,13.93
2019-02-27T18:35:20.924Z,13.97
2019-02-27T18:37:53.606Z,15.57
2019-02-27T18:40:20.944Z,14.13
2019-02-27T18:42:49.500Z,14.87
2019-02-27T18:45:20.503Z,14.93
2019-02-27T18:47:49.067Z,14.10
2019-02-27T18:50:17.663Z,16.07
2019-02-27T18:52:46.644Z,17.63
2019-02-27T18:55:15.672Z,17.50
2019-02-27T18:57:47.096Z,18.57
2019-02-27T19:00:21.291Z,17.57
2019-02-27T19:02:52.247Z,17.40
2019-02-27T19:05:22.162Z,16.10
2019-02-27T19:07:53.770Z,16.53
2019-02-27T19:10:21.053Z,18.87
2019-02-27T19:12:49.581Z,22.40
2019-02-27T19:15:23.903Z,23.30
2019-02-27T19:17:52.504Z,23.70
2019-02-27T19:20:29.782Z,18.97
2019-02-27T19:23:00.320Z,19.03
2019-02-27T19:25:34.182Z,18.00
2019-02-27T19:27:59.456Z,17.17
2019-02-27T19:30:28.087Z,18.00
2019-02-27T19:33:01.502Z,16.90
2019-02-27T19:35:27.304Z,15.27
2019-02-27T19:37:55.863Z,16.10
2019-02-27T19:40:27.287Z,16.03
2019-02-27T19:42:59.857Z,16.27
2019-02-27T19:45:28.532Z,33.60
2019-02-27T19:47:57.083Z,16.77
2019-02-27T19:50:26.092Z,15.27
2019-02-27T19:52:54.796Z,15.13
2019-02-27T19:55:26.468Z,16.50
2019-02-27T19:57:53.857Z,15.60
2019-02-27T20:00:24.756Z,15.73
2019-02-27T20:02:56.986Z,16.00
2019-02-27T20:05:24.330Z,15.80
2019-02-27T20:07:53.506Z,17.03
2019-02-27T20:10:22.236Z,16.83
2019-02-27T20:12:53.721Z,16.33
2019-02-27T20:15:23.486Z,16.97
2019-02-27T20:17:52.552Z,17.33
2019-02-27T20:20:22.460Z,17.57
2019-02-27T20:22:53.470Z,18.30
2019-02-27T20:25:24.589Z,19.83
2019-02-27T20:27:53.290Z,20.57
2019-02-27T20:30:23.368Z,19.37
2019-02-27T20:32:52.063Z,19.47
2019-02-27T20:35:21.584Z,19.07
2019-02-27T20:37:50.375Z,18.70
2019-02-27T20:40:20.177Z,20.73
2019-02-27T20:42:50.461Z,20.10
2019-02-27T20:45:23.859Z,18.20
2019-02-27T20:47:57.784Z,18.00
2019-02-27T20:50:35.960Z,17.80
2019-02-27T20:53:05.469Z,17.70
2019-02-27T20:55:34.089Z,17.00
2019-02-27T20:58:02.765Z,17.47
2019-02-27T21:00:35.977Z,17.10
2019-02-27T21:03:02.630Z,18.40
2019-02-27T21:05:31.583Z,19.13
2019-02-27T21:08:02.106Z,19.57
2019-02-27T21:10:32.055Z,18.17
2019-02-27T21:13:00.675Z,19.00
2019-02-27T21:15:32.567Z,19.10
2019-02-27T21:17:59.791Z,19.10
2019-02-27T21:20:28.344Z,19.37
2019-02-27T21:22:59.858Z,19.63
2019-02-27T21:25:27.076Z,18.10
2019-02-27T21:27:55.612Z,19.10
2019-02-27T21:30:25.104Z,19.50
2019-02-27T21:32:53.995Z,18.77
2019-02-27T21:35:22.623Z,17.30
2019-02-27T21:37:51.396Z,17.53
2019-02-27T21:40:20.463Z,18.20
2019-02-27T21:42:50.869Z,17.07
2019-02-27T21:45:21.754Z,18.80
2019-02-27T21:47:51.756Z,17.63
2019-02-27T21:50:24.764Z,18.13
2019-02-27T21:52:55.641Z,18.10
2019-02-27T21:55:23.747Z,17.73
2019-02-27T21:57:52.276Z,17.03
2019-02-27T22:00:24.317Z,19.07
2019-02-27T22:03:04.128Z,18.17
2019-02-27T22:05:29.635Z,17.90
2019-02-27T22:07:58.445Z,17.67
2019-02-27T22:10:27.140Z,19.03
2019-02-27T22:12:56.021Z,16.70
2019-02-27T22:15:29.555Z,15.93
2019-02-27T22:17:58.223Z,16.70
2019-02-27T22:20:27.036Z,17.47
2019-02-27T22:22:55.675Z,16.13
2019-02-27T22:25:29.888Z,17.17
2019-02-27T22:27:54.992Z,17.20
2019-02-27T22:30:23.815Z,18.50
2019-02-27T22:32:52.780Z,17.63
2019-02-27T22:35:21.265Z,18.53
2019-02-27T22:37:52.404Z,19.30
2019-02-27T22:40:24.119Z,21.63
2019-02-27T22:42:52.603Z,17.90
2019-02-27T22:45:21.739Z,20.07
2019-02-27T22:47:54.022Z,18.70
2019-02-27T22:50:21.788Z,18.03
2019-02-27T22:52:54.082Z,17.63
2019-02-27T22:55:20.809Z,18.00
2019-02-27T22:57:49.372Z,17.87
2019-02-27T23:00:43.101Z,16.90
2019-02-27T23:03:10.504Z,16.57
2019-02-27T23:05:39.193Z,15.03
2019-02-27T23:08:07.895Z,15.87
2019-02-27T23:10:36.496Z,14.93
2019-02-27T23:13:05.230Z,14.90
2019-02-27T23:15:33.832Z,16.10
2019-02-27T23:18:05.965Z,15.13
2019-02-27T23:20:33.337Z,15.47
2019-02-27T23:23:02.610Z,15.30
2019-02-27T23:25:32.071Z,16.60
2019-02-27T23:28:00.821Z,18.23
2019-02-27T23:30:30.567Z,19.00
2019-02-27T23:32:59.423Z,19.70
2019-02-27T23:35:29.372Z,18.53
2019-02-27T23:38:03.073Z,20.03
2019-02-27T23:40:28.355Z,20.30
2019-02-27T23:43:02.435Z,18.87
2019-02-27T23:45:27.295Z,19.43
2019-02-27T23:47:55.848Z,18.77
2019-02-27T23:50:24.371Z,19.50
2019-02-27T23:52:53.334Z,19.03
2019-02-27T23:55:22.559Z,19.47
2019-02-27T23:57:51.235Z,19.53
